sensor_id;sensor_type;location;lat;lon;timestamp;P1;durP1;ratioP1;P2;durP2;ratioP2
53890;SDS011;41337;51.400;-2.342;2023-06-14T00:09:38;6.80;;;6.25;;
53890;SDS011;41337;51.400;-2.342;2023-06-14T00:14:48;7.05;;;6.45;;
53890;SDS011;41337;51.400;-2.342;2023-06-14T00:19:58;7.40;;;6.70;;
53890;SDS011;41337;51.400;-2.342;2023-06-14T00:25:09;7.28;;;6.72;;
53890;SDS011;41337;51.400;-2.342;2023-06-14T00:30:19;9.38;;;6.50;;
53890;SDS011;41337;51.400;-2.342;2023-06-14T00:35:29;6.82;;;6.22;;
53890;SDS011;41337;51.400;-2.342;2023-06-14T00:40:30;7.40;;;6.70;;
53890;SDS011;41337;51.400;-2.342;2023-06-14T00:45:40;8.10;;;5.75;;
53890;SDS011;41337;51.400;-2.342;2023-06-14T00:50:50;6.18;;;5.68;;
53890;SDS011;41337;51.400;-2.342;2023-06-14T00:56:01;6.55;;;6.15;;
53890;SDS011;41337;51.400;-2.342;2023-06-14T01:19:09;6.57;;;5.95;;
53890;SDS011;41337;51.400;-2.342;2023-06-14T01:24:17;6.93;;;5.32;;
53890;SDS011;41337;51.400;-2.342;2023-06-14T01:29:29;6.97;;;5.20;;
53890;SDS011;41337;51.400;-2.342;2023-06-14T01:34:42;5.45;;;4.93;;
53890;SDS011;41337;51.400;-2.342;2023-06-14T01:39:44;5.15;;;4.75;;
53890;SDS011;41337;51.400;-2.342;2023-06-14T01:44:54;5.30;;;4.85;;
53890;SDS011;41337;51.400;-2.342;2023-06-14T01:50:05;6.55;;;5.53;;
53890;SDS011;41337;51.400;-2.342;2023-06-14T01:55:15;6.90;;;6.18;;
53890;SDS011;41337;51.400;-2.342;2023-06-14T02:00:27;6.15;;;5.65;;
53890;SDS011;41337;51.400;-2.342;2023-06-14T02:05:36;13.23;;;6.18;;
53890;SDS011;41337;51.400;-2.342;2023-06-14T02:17:11;6.85;;;6.05;;
53890;SDS011;41337;51.400;-2.342;2023-06-14T02:22:20;6.45;;;5.85;;
53890;SDS011;41337;51.400;-2.342;2023-06-14T02:27:31;5.47;;;4.95;;
53890;SDS011;41337;51.400;-2.342;2023-06-14T02:32:41;5.28;;;4.82;;
53890;SDS011;41337;51.400;-2.342;2023-06-14T02:37:51;4.95;;;4.45;;
53890;SDS011;41337;51.400;-2.342;2023-06-14T02:42:52;7.00;;;4.70;;
53890;SDS011;41337;51.400;-2.342;2023-06-14T02:48:02;6.18;;;5.65;;
53890;SDS011;41337;51.400;-2.342;2023-06-14T02:53:12;7.47;;;4.78;;
53890;SDS011;41337;51.400;-2.342;2023-06-14T02:58:22;5.57;;;5.13;;
53890;SDS011;41337;51.400;-2.342;2023-06-14T03:03:34;4.97;;;4.35;;
53890;SDS011;41337;51.400;-2.342;2023-06-14T03:08:44;8.23;;;4.53;;
53890;SDS011;41337;51.400;-2.342;2023-06-14T03:13:54;4.60;;;4.20;;
53890;SDS011;41337;51.400;-2.342;2023-06-14T03:19:05;7.22;;;3.60;;
53890;SDS011;41337;51.400;-2.342;2023-06-14T03:24:15;3.92;;;3.45;;
53890;SDS011;41337;51.400;-2.342;2023-06-14T03:29:27;4.10;;;3.67;;
53890;SDS011;41337;51.400;-2.342;2023-06-14T03:34:37;4.72;;;3.15;;
53890;SDS011;41337;51.400;-2.342;2023-06-14T03:39:41;4.78;;;3.50;;
53890;SDS011;41337;51.400;-2.342;2023-06-14T03:44:55;4.75;;;3.67;;
53890;SDS011;41337;51.400;-2.342;2023-06-14T03:49:59;6.85;;;3.47;;
53890;SDS011;41337;51.400;-2.342;2023-06-14T03:55:00;5.38;;;3.67;;
53890;SDS011;41337;51.400;-2.342;2023-06-14T04:00:10;5.85;;;3.53;;
53890;SDS011;41337;51.400;-2.342;2023-06-14T04:05:21;4.57;;;3.20;;
53890;SDS011;41337;51.400;-2.342;2023-06-14T04:10:35;3.80;;;3.30;;
53890;SDS011;41337;51.400;-2.342;2023-06-14T04:15:45;7.22;;;3.65;;
53890;SDS011;41337;51.400;-2.342;2023-06-14T04:20:54;6.20;;;3.38;;
53890;SDS011;41337;51.400;-2.342;2023-06-14T04:26:08;7.95;;;3.50;;
53890;SDS011;41337;51.400;-2.342;2023-06-14T04:31:19;3.72;;;3.33;;
53890;SDS011;41337;51.400;-2.342;2023-06-14T04:36:24;6.70;;;3.75;;
53890;SDS011;41337;51.400;-2.342;2023-06-14T04:41:28;7.90;;;3.13;;
53890;SDS011;41337;51.400;-2.342;2023-06-14T04:46:39;8.85;;;3.35;;
53890;SDS011;41337;51.400;-2.342;2023-06-14T04:51:56;8.07;;;3.20;;
53890;SDS011;41337;51.400;-2.342;2023-06-14T04:57:10;3.35;;;3.08;;
53890;SDS011;41337;51.400;-2.342;2023-06-14T05:02:26;8.05;;;3.75;;
53890;SDS011;41337;51.400;-2.342;2023-06-14T05:07:36;7.53;;;3.10;;
53890;SDS011;41337;51.400;-2.342;2023-06-14T05:12:46;4.57;;;3.45;;
53890;SDS011;41337;51.400;-2.342;2023-06-14T05:17:51;4.00;;;2.80;;
53890;SDS011;41337;51.400;-2.342;2023-06-14T05:23:04;6.77;;;3.43;;
53890;SDS011;41337;51.400;-2.342;2023-06-14T05:28:14;7.32;;;3.65;;
53890;SDS011;41337;51.400;-2.342;2023-06-14T05:33:25;6.05;;;3.92;;
53890;SDS011;41337;51.400;-2.342;2023-06-14T05:38:35;6.25;;;3.03;;
53890;SDS011;41337;51.400;-2.342;2023-06-14T05:43:36;7.38;;;3.25;;
53890;SDS011;41337;51.400;-2.342;2023-06-14T05:48:47;5.50;;;3.85;;
53890;SDS011;41337;51.400;-2.342;2023-06-14T06:00:20;9.10;;;3.70;;
53890;SDS011;41337;51.400;-2.342;2023-06-14T06:18:09;7.35;;;3.75;;
53890;SDS011;41337;51.400;-2.342;2023-06-14T06:23:18;9.23;;;3.85;;
53890;SDS011;41337;51.400;-2.342;2023-06-14T06:28:28;6.00;;;3.33;;
53890;SDS011;41337;51.400;-2.342;2023-06-14T06:33:39;9.35;;;3.78;;
53890;SDS011;41337;51.400;-2.342;2023-06-14T06:57:48;7.30;;;3.65;;
53890;SDS011;41337;51.400;-2.342;2023-06-14T07:02:50;5.97;;;3.70;;
53890;SDS011;41337;51.400;-2.342;2023-06-14T07:07:51;9.88;;;3.90;;
53890;SDS011;41337;51.400;-2.342;2023-06-14T07:12:52;8.75;;;4.05;;
53890;SDS011;41337;51.400;-2.342;2023-06-14T07:18:01;4.63;;;3.28;;
53890;SDS011;41337;51.400;-2.342;2023-06-14T07:23:11;9.68;;;3.88;;
53890;SDS011;41337;51.400;-2.342;2023-06-14T07:28:20;7.60;;;3.30;;
53890;SDS011;41337;51.400;-2.342;2023-06-14T07:33:24;7.53;;;2.72;;
53890;SDS011;41337;51.400;-2.342;2023-06-14T07:38:25;9.90;;;3.60;;
53890;SDS011;41337;51.400;-2.342;2023-06-14T07:49:51;7.70;;;3.10;;
53890;SDS011;41337;51.400;-2.342;2023-06-14T07:55:01;5.25;;;2.80;;
53890;SDS011;41337;51.400;-2.342;2023-06-14T08:31:56;5.40;;;2.60;;
53890;SDS011;41337;51.400;-2.342;2023-06-14T08:37:06;5.88;;;2.33;;
53890;SDS011;41337;51.400;-2.342;2023-06-14T08:42:07;6.82;;;2.80;;
53890;SDS011;41337;51.400;-2.342;2023-06-14T08:47:19;3.13;;;2.35;;
53890;SDS011;41337;51.400;-2.342;2023-06-14T08:52:29;5.18;;;2.45;;
53890;SDS011;41337;51.400;-2.342;2023-06-14T08:57:49;3.80;;;2.20;;
53890;SDS011;41337;51.400;-2.342;2023-06-14T09:02:59;4.18;;;1.95;;
53890;SDS011;41337;51.400;-2.342;2023-06-14T09:08:09;4.15;;;2.40;;
53890;SDS011;41337;51.400;-2.342;2023-06-14T09:13:20;7.65;;;2.30;;
53890;SDS011;41337;51.400;-2.342;2023-06-14T09:18:42;3.53;;;2.03;;
53890;SDS011;41337;51.400;-2.342;2023-06-14T09:23:45;6.03;;;2.30;;
53890;SDS011;41337;51.400;-2.342;2023-06-14T09:28:56;2.58;;;1.90;;
53890;SDS011;41337;51.400;-2.342;2023-06-14T09:33:58;5.03;;;2.10;;
53890;SDS011;41337;51.400;-2.342;2023-06-14T09:39:07;5.95;;;2.00;;
53890;SDS011;41337;51.400;-2.342;2023-06-14T09:44:18;2.88;;;1.85;;
53890;SDS011;41337;51.400;-2.342;2023-06-14T09:49:29;7.97;;;2.05;;
53890;SDS011;41337;51.400;-2.342;2023-06-14T09:54:42;4.30;;;2.10;;
53890;SDS011;41337;51.400;-2.342;2023-06-14T09:59:56;12.73;;;2.97;;
53890;SDS011;41337;51.400;-2.342;2023-06-14T10:11:39;12.57;;;2.58;;
53890;SDS011;41337;51.400;-2.342;2023-06-14T10:28:30;5.45;;;1.90;;
53890;SDS011;41337;51.400;-2.342;2023-06-14T10:33:32;3.28;;;1.52;;
53890;SDS011;41337;51.400;-2.342;2023-06-14T10:38:35;3.33;;;1.70;;
53890;SDS011;41337;51.400;-2.342;2023-06-14T10:43:46;3.20;;;1.38;;
53890;SDS011;41337;51.400;-2.342;2023-06-14T10:48:56;2.35;;;1.75;;
53890;SDS011;41337;51.400;-2.342;2023-06-14T10:54:07;3.53;;;2.00;;
53890;SDS011;41337;51.400;-2.342;2023-06-14T11:05:51;5.30;;;1.80;;
53890;SDS011;41337;51.400;-2.342;2023-06-14T11:11:01;3.10;;;1.90;;
53890;SDS011;41337;51.400;-2.342;2023-06-14T11:22:53;3.47;;;1.95;;
53890;SDS011;41337;51.400;-2.342;2023-06-14T11:28:03;5.57;;;1.75;;
53890;SDS011;41337;51.400;-2.342;2023-06-14T11:33:05;2.20;;;2.00;;
53890;SDS011;41337;51.400;-2.342;2023-06-14T11:38:19;2.75;;;2.25;;
53890;SDS011;41337;51.400;-2.342;2023-06-14T11:43:29;3.08;;;1.95;;
53890;SDS011;41337;51.400;-2.342;2023-06-14T11:54:58;6.60;;;2.67;;
53890;SDS011;41337;51.400;-2.342;2023-06-14T12:00:08;4.18;;;2.55;;
53890;SDS011;41337;51.400;-2.342;2023-06-14T12:05:21;5.28;;;2.83;;
53890;SDS011;41337;51.400;-2.342;2023-06-14T12:10:33;4.13;;;2.80;;
53890;SDS011;41337;51.400;-2.342;2023-06-14T12:15:53;5.93;;;3.30;;
53890;SDS011;41337;51.400;-2.342;2023-06-14T12:27:21;3.70;;;3.15;;
53890;SDS011;41337;51.400;-2.342;2023-06-14T12:32:24;3.38;;;3.00;;
53890;SDS011;41337;51.400;-2.342;2023-06-14T12:37:25;4.40;;;3.28;;
53890;SDS011;41337;51.400;-2.342;2023-06-14T12:42:26;3.33;;;2.90;;
53890;SDS011;41337;51.400;-2.342;2023-06-14T12:47:35;4.43;;;3.53;;
53890;SDS011;41337;51.400;-2.342;2023-06-14T12:52:45;3.80;;;3.40;;
53890;SDS011;41337;51.400;-2.342;2023-06-14T12:57:55;3.33;;;2.85;;
53890;SDS011;41337;51.400;-2.342;2023-06-14T13:03:05;5.75;;;3.00;;
53890;SDS011;41337;51.400;-2.342;2023-06-14T13:14:31;3.30;;;3.00;;
53890;SDS011;41337;51.400;-2.342;2023-06-14T13:19:41;6.03;;;3.28;;
53890;SDS011;41337;51.400;-2.342;2023-06-14T13:24:51;4.30;;;3.38;;
53890;SDS011;41337;51.400;-2.342;2023-06-14T13:30:01;5.60;;;3.15;;
53890;SDS011;41337;51.400;-2.342;2023-06-14T13:35:02;7.72;;;3.47;;
53890;SDS011;41337;51.400;-2.342;2023-06-14T13:40:04;8.20;;;4.10;;
53890;SDS011;41337;51.400;-2.342;2023-06-14T13:45:06;3.90;;;3.50;;
53890;SDS011;41337;51.400;-2.342;2023-06-14T13:50:17;6.60;;;3.40;;
53890;SDS011;41337;51.400;-2.342;2023-06-14T13:55:26;5.60;;;4.25;;
53890;SDS011;41337;51.400;-2.342;2023-06-14T14:00:36;4.47;;;3.45;;
53890;SDS011;41337;51.400;-2.342;2023-06-14T14:05:49;4.07;;;3.70;;
53890;SDS011;41337;51.400;-2.342;2023-06-14T14:10:50;4.05;;;3.33;;
53890;SDS011;41337;51.400;-2.342;2023-06-14T14:15:51;3.70;;;3.15;;
53890;SDS011;41337;51.400;-2.342;2023-06-14T14:20:52;3.80;;;3.40;;
53890;SDS011;41337;51.400;-2.342;2023-06-14T14:25:53;7.63;;;4.05;;
53890;SDS011;41337;51.400;-2.342;2023-06-14T14:30:54;5.07;;;3.88;;
53890;SDS011;41337;51.400;-2.342;2023-06-14T14:35:58;7.38;;;4.15;;
53890;SDS011;41337;51.400;-2.342;2023-06-14T14:41:03;3.90;;;3.45;;
53890;SDS011;41337;51.400;-2.342;2023-06-14T14:46:04;7.32;;;3.85;;
53890;SDS011;41337;51.400;-2.342;2023-06-14T14:51:05;5.82;;;3.55;;
53890;SDS011;41337;51.400;-2.342;2023-06-14T14:56:06;3.70;;;3.42;;
53890;SDS011;41337;51.400;-2.342;2023-06-14T15:01:07;7.45;;;3.65;;
53890;SDS011;41337;51.400;-2.342;2023-06-14T15:06:08;6.07;;;3.78;;
53890;SDS011;41337;51.400;-2.342;2023-06-14T15:11:09;3.92;;;3.53;;
53890;SDS011;41337;51.400;-2.342;2023-06-14T15:16:09;4.47;;;4.07;;
53890;SDS011;41337;51.400;-2.342;2023-06-14T15:21:10;6.05;;;3.83;;
53890;SDS011;41337;51.400;-2.342;2023-06-14T15:26:12;4.10;;;3.70;;
53890;SDS011;41337;51.400;-2.342;2023-06-14T15:31:13;9.30;;;3.80;;
53890;SDS011;41337;51.400;-2.342;2023-06-14T15:36:15;7.18;;;3.70;;
53890;SDS011;41337;51.400;-2.342;2023-06-14T15:41:16;7.32;;;4.00;;
53890;SDS011;41337;51.400;-2.342;2023-06-14T15:46:16;6.25;;;3.72;;
53890;SDS011;41337;51.400;-2.342;2023-06-14T15:51:20;4.47;;;3.85;;
53890;SDS011;41337;51.400;-2.342;2023-06-14T15:56:21;4.30;;;3.97;;
53890;SDS011;41337;51.400;-2.342;2023-06-14T16:01:22;4.18;;;3.78;;
53890;SDS011;41337;51.400;-2.342;2023-06-14T16:06:24;4.57;;;3.30;;
53890;SDS011;41337;51.400;-2.342;2023-06-14T16:11:25;4.20;;;3.88;;
53890;SDS011;41337;51.400;-2.342;2023-06-14T16:16:26;5.18;;;4.65;;
53890;SDS011;41337;51.400;-2.342;2023-06-14T16:21:26;7.10;;;3.95;;
53890;SDS011;41337;51.400;-2.342;2023-06-14T16:26:27;6.70;;;4.15;;
53890;SDS011;41337;51.400;-2.342;2023-06-14T16:31:28;6.40;;;4.03;;
53890;SDS011;41337;51.400;-2.342;2023-06-14T16:36:29;5.10;;;4.00;;
53890;SDS011;41337;51.400;-2.342;2023-06-14T16:41:30;4.30;;;3.90;;
53890;SDS011;41337;51.400;-2.342;2023-06-14T16:46:31;6.65;;;3.90;;
53890;SDS011;41337;51.400;-2.342;2023-06-14T16:51:32;4.28;;;3.88;;
53890;SDS011;41337;51.400;-2.342;2023-06-14T16:56:33;4.13;;;3.83;;
53890;SDS011;41337;51.400;-2.342;2023-06-14T17:01:34;7.85;;;3.90;;
53890;SDS011;41337;51.400;-2.342;2023-06-14T17:06:35;5.07;;;4.20;;
53890;SDS011;41337;51.400;-2.342;2023-06-14T17:11:36;4.38;;;4.10;;
53890;SDS011;41337;51.400;-2.342;2023-06-14T17:16:37;4.20;;;3.90;;
53890;SDS011;41337;51.400;-2.342;2023-06-14T17:21:39;5.18;;;3.97;;
53890;SDS011;41337;51.400;-2.342;2023-06-14T17:26:46;6.10;;;4.30;;
53890;SDS011;41337;51.400;-2.342;2023-06-14T17:31:48;4.75;;;4.07;;
53890;SDS011;41337;51.400;-2.342;2023-06-14T17:36:49;7.00;;;4.07;;
53890;SDS011;41337;51.400;-2.342;2023-06-14T17:41:51;4.70;;;3.90;;
53890;SDS011;41337;51.400;-2.342;2023-06-14T17:46:51;4.88;;;4.38;;
53890;SDS011;41337;51.400;-2.342;2023-06-14T17:51:52;4.75;;;3.75;;
53890;SDS011;41337;51.400;-2.342;2023-06-14T17:56:53;5.20;;;4.22;;
53890;SDS011;41337;51.400;-2.342;2023-06-14T18:01:54;5.30;;;3.88;;
53890;SDS011;41337;51.400;-2.342;2023-06-14T18:06:55;5.93;;;4.50;;
53890;SDS011;41337;51.400;-2.342;2023-06-14T18:11:56;5.05;;;4.60;;
53890;SDS011;41337;51.400;-2.342;2023-06-14T18:16:56;5.40;;;4.75;;
53890;SDS011;41337;51.400;-2.342;2023-06-14T18:21:58;8.85;;;4.97;;
53890;SDS011;41337;51.400;-2.342;2023-06-14T18:26:59;6.22;;;4.60;;
53890;SDS011;41337;51.400;-2.342;2023-06-14T18:32:01;6.07;;;4.00;;
53890;SDS011;41337;51.400;-2.342;2023-06-14T18:37:02;6.47;;;4.38;;
53890;SDS011;41337;51.400;-2.342;2023-06-14T18:42:03;5.95;;;4.38;;
53890;SDS011;41337;51.400;-2.342;2023-06-14T18:47:06;6.20;;;4.80;;
53890;SDS011;41337;51.400;-2.342;2023-06-14T18:52:07;8.00;;;5.10;;
53890;SDS011;41337;51.400;-2.342;2023-06-14T18:57:08;4.80;;;4.40;;
53890;SDS011;41337;51.400;-2.342;2023-06-14T19:02:09;7.63;;;4.55;;
53890;SDS011;41337;51.400;-2.342;2023-06-14T19:07:10;6.53;;;4.80;;
53890;SDS011;41337;51.400;-2.342;2023-06-14T19:12:11;8.40;;;4.30;;
53890;SDS011;41337;51.400;-2.342;2023-06-14T19:17:12;5.22;;;4.57;;
53890;SDS011;41337;51.400;-2.342;2023-06-14T19:22:13;5.78;;;4.80;;
53890;SDS011;41337;51.400;-2.342;2023-06-14T19:27:14;4.97;;;4.57;;
53890;SDS011;41337;51.400;-2.342;2023-06-14T19:32:15;6.60;;;5.93;;
53890;SDS011;41337;51.400;-2.342;2023-06-14T19:37:16;10.15;;;7.38;;
53890;SDS011;41337;51.400;-2.342;2023-06-14T19:42:18;10.55;;;7.15;;
53890;SDS011;41337;51.400;-2.342;2023-06-14T19:47:19;7.85;;;6.53;;
53890;SDS011;41337;51.400;-2.342;2023-06-14T19:52:20;6.63;;;6.00;;
53890;SDS011;41337;51.400;-2.342;2023-06-14T19:57:23;6.55;;;5.85;;
53890;SDS011;41337;51.400;-2.342;2023-06-14T20:02:25;8.32;;;6.22;;
53890;SDS011;41337;51.400;-2.342;2023-06-14T20:07:26;9.38;;;8.07;;
53890;SDS011;41337;51.400;-2.342;2023-06-14T20:12:27;9.15;;;7.68;;
53890;SDS011;41337;51.400;-2.342;2023-06-14T20:17:27;6.65;;;6.05;;
53890;SDS011;41337;51.400;-2.342;2023-06-14T20:22:28;9.65;;;6.47;;
53890;SDS011;41337;51.400;-2.342;2023-06-14T20:27:29;6.43;;;6.03;;
53890;SDS011;41337;51.400;-2.342;2023-06-14T20:32:30;12.70;;;9.45;;
53890;SDS011;41337;51.400;-2.342;2023-06-14T20:37:31;11.57;;;8.02;;
53890;SDS011;41337;51.400;-2.342;2023-06-14T20:42:32;8.55;;;6.20;;
53890;SDS011;41337;51.400;-2.342;2023-06-14T20:47:33;6.60;;;5.90;;
53890;SDS011;41337;51.400;-2.342;2023-06-14T20:52:35;6.60;;;5.65;;
53890;SDS011;41337;51.400;-2.342;2023-06-14T20:57:39;5.90;;;5.47;;
53890;SDS011;41337;51.400;-2.342;2023-06-14T21:02:40;7.03;;;5.43;;
53890;SDS011;41337;51.400;-2.342;2023-06-14T21:07:41;6.40;;;5.78;;
53890;SDS011;41337;51.400;-2.342;2023-06-14T21:12:42;8.30;;;5.90;;
53890;SDS011;41337;51.400;-2.342;2023-06-14T21:17:43;6.75;;;5.85;;
53890;SDS011;41337;51.400;-2.342;2023-06-14T21:22:44;7.88;;;5.70;;
53890;SDS011;41337;51.400;-2.342;2023-06-14T21:27:46;6.43;;;5.80;;
53890;SDS011;41337;51.400;-2.342;2023-06-14T21:32:47;7.25;;;5.72;;
53890;SDS011;41337;51.400;-2.342;2023-06-14T21:37:48;7.00;;;5.65;;
53890;SDS011;41337;51.400;-2.342;2023-06-14T21:42:49;7.55;;;6.18;;
53890;SDS011;41337;51.400;-2.342;2023-06-14T21:47:50;9.23;;;7.20;;
53890;SDS011;41337;51.400;-2.342;2023-06-14T21:52:50;8.13;;;7.38;;
53890;SDS011;41337;51.400;-2.342;2023-06-14T21:57:51;8.25;;;7.45;;
53890;SDS011;41337;51.400;-2.342;2023-06-14T22:02:52;8.93;;;7.47;;
53890;SDS011;41337;51.400;-2.342;2023-06-14T22:07:53;9.93;;;7.30;;
53890;SDS011;41337;51.400;-2.342;2023-06-14T22:12:54;8.48;;;7.68;;
53890;SDS011;41337;51.400;-2.342;2023-06-14T22:17:57;8.68;;;7.32;;
53890;SDS011;41337;51.400;-2.342;2023-06-14T22:22:58;10.45;;;8.00;;
53890;SDS011;41337;51.400;-2.342;2023-06-14T22:28:00;10.05;;;7.35;;
53890;SDS011;41337;51.400;-2.342;2023-06-14T22:33:00;7.70;;;6.97;;
53890;SDS011;41337;51.400;-2.342;2023-06-14T22:38:03;8.68;;;7.22;;
53890;SDS011;41337;51.400;-2.342;2023-06-14T22:43:04;12.57;;;6.18;;
53890;SDS011;41337;51.400;-2.342;2023-06-14T22:48:05;8.60;;;5.75;;
53890;SDS011;41337;51.400;-2.342;2023-06-14T22:53:06;9.20;;;5.93;;
53890;SDS011;41337;51.400;-2.342;2023-06-14T22:58:08;6.63;;;6.00;;
53890;SDS011;41337;51.400;-2.342;2023-06-14T23:03:09;8.38;;;5.45;;
53890;SDS011;41337;51.400;-2.342;2023-06-14T23:08:10;7.03;;;5.25;;
53890;SDS011;41337;51.400;-2.342;2023-06-14T23:13:11;9.65;;;5.03;;
53890;SDS011;41337;51.400;-2.342;2023-06-14T23:18:11;8.30;;;4.90;;
53890;SDS011;41337;51.400;-2.342;2023-06-14T23:23:13;6.30;;;5.43;;
53890;SDS011;41337;51.400;-2.342;2023-06-14T23:28:14;5.82;;;5.28;;
53890;SDS011;41337;51.400;-2.342;2023-06-14T23:33:17;7.97;;;5.10;;
53890;SDS011;41337;51.400;-2.342;2023-06-14T23:38:18;7.55;;;4.97;;
53890;SDS011;41337;51.400;-2.342;2023-06-14T23:43:20;9.70;;;5.75;;
53890;SDS011;41337;51.400;-2.342;2023-06-14T23:48:22;7.10;;;5.10;;
53890;SDS011;41337;51.400;-2.342;2023-06-14T23:53:26;5.43;;;5.03;;
53890;SDS011;41337;51.400;-2.342;2023-06-14T23:58:27;5.97;;;5.32;;
